sensor_id;sensor_type;location;lat;lon;timestamp;P1;durP1;ratioP1;P2;durP2;ratioP2
45039;SDS011;30778;53.574;7.770;2023-03-01T00:01:06;17.15;;;8.38;;
45039;SDS011;30778;53.574;7.770;2023-03-01T00:03:33;17.05;;;7.95;;
45039;SDS011;30778;53.574;7.770;2023-03-01T00:05:59;22.15;;;8.48;;
45039;SDS011;30778;53.574;7.770;2023-03-01T00:08:26;21.50;;;8.75;;
45039;SDS011;30778;53.574;7.770;2023-03-01T00:11:09;25.60;;;9.70;;
45039;SDS011;30778;53.574;7.770;2023-03-01T00:13:47;16.55;;;7.82;;
45039;SDS011;30778;53.574;7.770;2023-03-01T00:16:18;14.18;;;7.03;;
45039;SDS011;30778;53.574;7.770;2023-03-01T00:18:53;14.15;;;6.93;;
45039;SDS011;30778;53.574;7.770;2023-03-01T00:21:22;12.88;;;6.28;;
45039;SDS011;30778;53.574;7.770;2023-03-01T00:23:48;14.45;;;6.65;;
45039;SDS011;30778;53.574;7.770;2023-03-01T00:26:15;14.23;;;6.32;;
45039;SDS011;30778;53.574;7.770;2023-03-01T00:28:42;15.45;;;6.78;;
45039;SDS011;30778;53.574;7.770;2023-03-01T00:31:12;16.77;;;7.72;;
45039;SDS011;30778;53.574;7.770;2023-03-01T00:33:39;19.52;;;6.13;;
45039;SDS011;30778;53.574;7.770;2023-03-01T00:36:06;13.00;;;5.38;;
45039;SDS011;30778;53.574;7.770;2023-03-01T00:38:35;10.02;;;5.20;;
45039;SDS011;30778;53.574;7.770;2023-03-01T00:41:05;11.65;;;5.97;;
45039;SDS011;30778;53.574;7.770;2023-03-01T00:43:32;12.73;;;5.65;;
45039;SDS011;30778;53.574;7.770;2023-03-01T00:46:02;16.08;;;6.03;;
45039;SDS011;30778;53.574;7.770;2023-03-01T00:48:29;14.52;;;6.28;;
45039;SDS011;30778;53.574;7.770;2023-03-01T00:50:54;17.77;;;7.50;;
45039;SDS011;30778;53.574;7.770;2023-03-01T00:53:20;19.88;;;7.55;;
45039;SDS011;30778;53.574;7.770;2023-03-01T00:55:45;17.63;;;8.00;;
45039;SDS011;30778;53.574;7.770;2023-03-01T00:58:11;17.80;;;9.10;;
45039;SDS011;30778;53.574;7.770;2023-03-01T01:00:36;21.48;;;9.82;;
45039;SDS011;30778;53.574;7.770;2023-03-01T01:03:02;17.55;;;8.85;;
45039;SDS011;30778;53.574;7.770;2023-03-01T01:05:27;22.08;;;9.77;;
45039;SDS011;30778;53.574;7.770;2023-03-01T01:07:53;17.95;;;9.23;;
45039;SDS011;30778;53.574;7.770;2023-03-01T01:10:18;24.20;;;10.07;;
45039;SDS011;30778;53.574;7.770;2023-03-01T01:12:44;25.52;;;10.57;;
45039;SDS011;30778;53.574;7.770;2023-03-01T01:15:10;34.30;;;10.35;;
45039;SDS011;30778;53.574;7.770;2023-03-01T01:17:39;24.42;;;9.93;;
45039;SDS011;30778;53.574;7.770;2023-03-01T01:20:05;18.38;;;9.13;;
45039;SDS011;30778;53.574;7.770;2023-03-01T01:22:31;24.73;;;10.48;;
45039;SDS011;30778;53.574;7.770;2023-03-01T01:24:56;22.60;;;9.57;;
45039;SDS011;30778;53.574;7.770;2023-03-01T01:27:23;21.70;;;10.27;;
45039;SDS011;30778;53.574;7.770;2023-03-01T01:29:49;24.20;;;10.50;;
45039;SDS011;30778;53.574;7.770;2023-03-01T01:32:14;18.70;;;9.90;;
45039;SDS011;30778;53.574;7.770;2023-03-01T01:34:40;18.98;;;10.45;;
45039;SDS011;30778;53.574;7.770;2023-03-01T01:37:05;21.55;;;9.15;;
45039;SDS011;30778;53.574;7.770;2023-03-01T01:39:33;18.13;;;8.40;;
45039;SDS011;30778;53.574;7.770;2023-03-01T01:42:00;17.65;;;8.40;;
45039;SDS011;30778;53.574;7.770;2023-03-01T01:44:27;29.55;;;8.18;;
45039;SDS011;30778;53.574;7.770;2023-03-01T01:47:06;20.58;;;8.98;;
45039;SDS011;30778;53.574;7.770;2023-03-01T01:49:40;18.45;;;9.07;;
45039;SDS011;30778;53.574;7.770;2023-03-01T01:52:16;20.23;;;8.93;;
45039;SDS011;30778;53.574;7.770;2023-03-01T01:54:48;17.02;;;8.40;;
45039;SDS011;30778;53.574;7.770;2023-03-01T01:57:19;21.30;;;9.07;;
45039;SDS011;30778;53.574;7.770;2023-03-01T01:59:53;19.23;;;8.63;;
45039;SDS011;30778;53.574;7.770;2023-03-01T02:02:23;19.25;;;7.75;;
45039;SDS011;30778;53.574;7.770;2023-03-01T02:04:49;17.80;;;7.72;;
45039;SDS011;30778;53.574;7.770;2023-03-01T02:07:22;18.45;;;8.68;;
45039;SDS011;30778;53.574;7.770;2023-03-01T02:09:49;14.20;;;7.30;;
45039;SDS011;30778;53.574;7.770;2023-03-01T02:12:18;13.52;;;6.55;;
45039;SDS011;30778;53.574;7.770;2023-03-01T02:14:48;37.83;;;8.07;;
45039;SDS011;30778;53.574;7.770;2023-03-01T02:17:14;14.63;;;7.78;;
45039;SDS011;30778;53.574;7.770;2023-03-01T02:20:00;14.60;;;7.28;;
45039;SDS011;30778;53.574;7.770;2023-03-01T02:22:32;19.10;;;8.60;;
45039;SDS011;30778;53.574;7.770;2023-03-01T02:25:03;18.30;;;8.23;;
45039;SDS011;30778;53.574;7.770;2023-03-01T02:30:33;20.35;;;8.25;;
45039;SDS011;30778;53.574;7.770;2023-03-01T02:32:59;16.35;;;8.30;;
45039;SDS011;30778;53.574;7.770;2023-03-01T02:35:32;14.82;;;7.75;;
45039;SDS011;30778;53.574;7.770;2023-03-01T02:38:01;14.85;;;7.70;;
45039;SDS011;30778;53.574;7.770;2023-03-01T02:40:28;14.38;;;6.90;;
45039;SDS011;30778;53.574;7.770;2023-03-01T02:42:57;13.52;;;6.85;;
45039;SDS011;30778;53.574;7.770;2023-03-01T02:45:24;13.32;;;7.47;;
45039;SDS011;30778;53.574;7.770;2023-03-01T02:47:55;14.77;;;7.75;;
45039;SDS011;30778;53.574;7.770;2023-03-01T02:52:57;13.35;;;7.20;;
45039;SDS011;30778;53.574;7.770;2023-03-01T02:55:30;12.88;;;6.63;;
45039;SDS011;30778;53.574;7.770;2023-03-01T02:57:56;14.57;;;6.22;;
45039;SDS011;30778;53.574;7.770;2023-03-01T03:00:24;14.65;;;7.03;;
45039;SDS011;30778;53.574;7.770;2023-03-01T03:02:53;13.85;;;6.50;;
45039;SDS011;30778;53.574;7.770;2023-03-01T03:05:23;12.60;;;6.38;;
45039;SDS011;30778;53.574;7.770;2023-03-01T03:07:56;8.90;;;5.18;;
45039;SDS011;30778;53.574;7.770;2023-03-01T03:10:23;10.18;;;5.72;;
45039;SDS011;30778;53.574;7.770;2023-03-01T03:12:52;18.58;;;8.20;;
45039;SDS011;30778;53.574;7.770;2023-03-01T03:15:20;20.38;;;8.52;;
45039;SDS011;30778;53.574;7.770;2023-03-01T03:17:47;24.23;;;10.00;;
45039;SDS011;30778;53.574;7.770;2023-03-01T03:20:14;25.80;;;10.85;;
45039;SDS011;30778;53.574;7.770;2023-03-01T03:22:47;21.30;;;9.90;;
45039;SDS011;30778;53.574;7.770;2023-03-01T03:25:14;23.27;;;10.50;;
45039;SDS011;30778;53.574;7.770;2023-03-01T03:27:41;26.08;;;8.63;;
45039;SDS011;30778;53.574;7.770;2023-03-01T03:30:09;45.67;;;12.57;;
45039;SDS011;30778;53.574;7.770;2023-03-01T03:32:39;28.45;;;10.07;;
45039;SDS011;30778;53.574;7.770;2023-03-01T03:35:06;24.73;;;11.32;;
45039;SDS011;30778;53.574;7.770;2023-03-01T03:37:40;21.60;;;10.77;;
45039;SDS011;30778;53.574;7.770;2023-03-01T03:40:25;24.77;;;10.27;;
45039;SDS011;30778;53.574;7.770;2023-03-01T03:42:51;24.80;;;11.05;;
45039;SDS011;30778;53.574;7.770;2023-03-01T03:45:17;19.17;;;9.88;;
45039;SDS011;30778;53.574;7.770;2023-03-01T03:47:43;26.58;;;11.60;;
45039;SDS011;30778;53.574;7.770;2023-03-01T03:50:10;25.20;;;10.15;;
45039;SDS011;30778;53.574;7.770;2023-03-01T03:52:36;24.85;;;10.77;;
45039;SDS011;30778;53.574;7.770;2023-03-01T03:55:02;29.17;;;10.85;;
45039;SDS011;30778;53.574;7.770;2023-03-01T03:57:28;26.67;;;11.82;;
45039;SDS011;30778;53.574;7.770;2023-03-01T03:59:56;30.60;;;11.77;;
45039;SDS011;30778;53.574;7.770;2023-03-01T04:02:22;23.77;;;8.43;;
45039;SDS011;30778;53.574;7.770;2023-03-01T04:04:48;23.23;;;9.85;;
45039;SDS011;30778;53.574;7.770;2023-03-01T04:07:16;25.58;;;9.57;;
45039;SDS011;30778;53.574;7.770;2023-03-01T04:09:42;22.45;;;8.63;;
45039;SDS011;30778;53.574;7.770;2023-03-01T04:12:09;23.27;;;9.68;;
45039;SDS011;30778;53.574;7.770;2023-03-01T04:14:35;22.30;;;10.57;;
45039;SDS011;30778;53.574;7.770;2023-03-01T04:17:00;24.88;;;10.48;;
45039;SDS011;30778;53.574;7.770;2023-03-01T04:19:26;25.20;;;12.43;;
45039;SDS011;30778;53.574;7.770;2023-03-01T04:21:52;28.17;;;11.98;;
45039;SDS011;30778;53.574;7.770;2023-03-01T04:24:18;32.83;;;11.40;;
45039;SDS011;30778;53.574;7.770;2023-03-01T04:26:43;22.98;;;10.38;;
45039;SDS011;30778;53.574;7.770;2023-03-01T04:29:09;26.15;;;11.35;;
45039;SDS011;30778;53.574;7.770;2023-03-01T04:31:34;22.23;;;10.40;;
45039;SDS011;30778;53.574;7.770;2023-03-01T04:34:00;20.45;;;9.57;;
45039;SDS011;30778;53.574;7.770;2023-03-01T04:36:26;24.25;;;9.60;;
45039;SDS011;30778;53.574;7.770;2023-03-01T04:38:53;20.95;;;10.05;;
45039;SDS011;30778;53.574;7.770;2023-03-01T04:41:20;54.75;;;10.93;;
45039;SDS011;30778;53.574;7.770;2023-03-01T04:43:47;28.10;;;12.05;;
45039;SDS011;30778;53.574;7.770;2023-03-01T04:46:14;41.05;;;13.20;;
45039;SDS011;30778;53.574;7.770;2023-03-01T04:48:43;36.70;;;12.13;;
45039;SDS011;30778;53.574;7.770;2023-03-01T04:51:10;28.10;;;10.77;;
45039;SDS011;30778;53.574;7.770;2023-03-01T04:53:38;30.30;;;11.20;;
45039;SDS011;30778;53.574;7.770;2023-03-01T04:56:04;26.55;;;10.23;;
45039;SDS011;30778;53.574;7.770;2023-03-01T04:58:30;27.52;;;11.65;;
45039;SDS011;30778;53.574;7.770;2023-03-01T05:00:56;28.58;;;11.95;;
45039;SDS011;30778;53.574;7.770;2023-03-01T05:03:21;33.95;;;12.55;;
45039;SDS011;30778;53.574;7.770;2023-03-01T05:05:48;28.13;;;12.13;;
45039;SDS011;30778;53.574;7.770;2023-03-01T05:08:16;30.98;;;11.75;;
45039;SDS011;30778;53.574;7.770;2023-03-01T05:10:50;32.50;;;12.55;;
45039;SDS011;30778;53.574;7.770;2023-03-01T05:13:17;31.38;;;11.48;;
45039;SDS011;30778;53.574;7.770;2023-03-01T05:15:48;25.17;;;11.25;;
45039;SDS011;30778;53.574;7.770;2023-03-01T05:18:18;27.50;;;11.10;;
45039;SDS011;30778;53.574;7.770;2023-03-01T05:20:44;28.42;;;11.73;;
45039;SDS011;30778;53.574;7.770;2023-03-01T05:23:09;34.97;;;11.93;;
45039;SDS011;30778;53.574;7.770;2023-03-01T05:25:35;27.98;;;10.25;;
45039;SDS011;30778;53.574;7.770;2023-03-01T05:28:05;35.17;;;11.85;;
45039;SDS011;30778;53.574;7.770;2023-03-01T05:30:34;29.77;;;12.40;;
45039;SDS011;30778;53.574;7.770;2023-03-01T05:33:00;33.45;;;12.68;;
45039;SDS011;30778;53.574;7.770;2023-03-01T05:35:26;25.80;;;10.90;;
45039;SDS011;30778;53.574;7.770;2023-03-01T05:37:52;26.10;;;9.98;;
45039;SDS011;30778;53.574;7.770;2023-03-01T05:40:19;60.95;;;11.38;;
45039;SDS011;30778;53.574;7.770;2023-03-01T05:45:14;21.73;;;8.88;;
45039;SDS011;30778;53.574;7.770;2023-03-01T05:47:41;23.48;;;10.02;;
45039;SDS011;30778;53.574;7.770;2023-03-01T05:50:12;31.75;;;11.75;;
45039;SDS011;30778;53.574;7.770;2023-03-01T05:52:38;22.42;;;8.82;;
45039;SDS011;30778;53.574;7.770;2023-03-01T05:55:03;35.60;;;9.18;;
45039;SDS011;30778;53.574;7.770;2023-03-01T05:57:29;24.35;;;10.60;;
45039;SDS011;30778;53.574;7.770;2023-03-01T05:59:55;32.97;;;9.30;;
45039;SDS011;30778;53.574;7.770;2023-03-01T06:02:20;28.85;;;8.73;;
45039;SDS011;30778;53.574;7.770;2023-03-01T06:04:45;29.77;;;9.23;;
45039;SDS011;30778;53.574;7.770;2023-03-01T06:07:11;22.85;;;8.77;;
45039;SDS011;30778;53.574;7.770;2023-03-01T06:09:36;22.70;;;9.70;;
45039;SDS011;30778;53.574;7.770;2023-03-01T06:12:02;22.52;;;8.75;;
45039;SDS011;30778;53.574;7.770;2023-03-01T06:14:27;22.25;;;9.57;;
45039;SDS011;30778;53.574;7.770;2023-03-01T06:16:53;42.33;;;9.77;;
45039;SDS011;30778;53.574;7.770;2023-03-01T06:19:18;74.13;;;10.82;;
45039;SDS011;30778;53.574;7.770;2023-03-01T06:21:44;21.75;;;8.45;;
45039;SDS011;30778;53.574;7.770;2023-03-01T06:24:09;26.88;;;10.25;;
45039;SDS011;30778;53.574;7.770;2023-03-01T06:26:35;39.55;;;9.07;;
45039;SDS011;30778;53.574;7.770;2023-03-01T06:29:00;34.85;;;9.15;;
45039;SDS011;30778;53.574;7.770;2023-03-01T06:31:26;18.63;;;7.75;;
45039;SDS011;30778;53.574;7.770;2023-03-01T06:33:53;39.35;;;8.77;;
45039;SDS011;30778;53.574;7.770;2023-03-01T06:36:19;20.92;;;7.93;;
45039;SDS011;30778;53.574;7.770;2023-03-01T06:38:46;52.90;;;10.98;;
45039;SDS011;30778;53.574;7.770;2023-03-01T06:41:11;36.05;;;8.18;;
45039;SDS011;30778;53.574;7.770;2023-03-01T06:43:37;20.02;;;7.00;;
45039;SDS011;30778;53.574;7.770;2023-03-01T06:46:05;24.85;;;8.68;;
45039;SDS011;30778;53.574;7.770;2023-03-01T06:48:32;35.85;;;9.77;;
45039;SDS011;30778;53.574;7.770;2023-03-01T06:50:59;30.33;;;8.82;;
45039;SDS011;30778;53.574;7.770;2023-03-01T06:53:26;20.20;;;8.20;;
45039;SDS011;30778;53.574;7.770;2023-03-01T06:55:56;33.55;;;10.65;;
45039;SDS011;30778;53.574;7.770;2023-03-01T06:58:22;22.40;;;9.52;;
45039;SDS011;30778;53.574;7.770;2023-03-01T07:00:48;61.80;;;10.43;;
45039;SDS011;30778;53.574;7.770;2023-03-01T07:03:13;28.27;;;8.73;;
45039;SDS011;30778;53.574;7.770;2023-03-01T07:05:39;17.80;;;7.95;;
45039;SDS011;30778;53.574;7.770;2023-03-01T07:08:05;19.33;;;7.82;;
45039;SDS011;30778;53.574;7.770;2023-03-01T07:10:30;17.45;;;7.05;;
45039;SDS011;30778;53.574;7.770;2023-03-01T07:12:56;25.95;;;8.35;;
45039;SDS011;30778;53.574;7.770;2023-03-01T07:15:23;21.50;;;6.97;;
45039;SDS011;30778;53.574;7.770;2023-03-01T07:17:50;14.30;;;6.80;;
45039;SDS011;30778;53.574;7.770;2023-03-01T07:20:17;15.32;;;6.47;;
45039;SDS011;30778;53.574;7.770;2023-03-01T07:22:54;16.80;;;6.88;;
45039;SDS011;30778;53.574;7.770;2023-03-01T07:25:21;19.25;;;7.28;;
45039;SDS011;30778;53.574;7.770;2023-03-01T07:27:51;18.80;;;6.55;;
45039;SDS011;30778;53.574;7.770;2023-03-01T07:30:17;19.02;;;7.13;;
45039;SDS011;30778;53.574;7.770;2023-03-01T07:32:43;21.58;;;8.13;;
45039;SDS011;30778;53.574;7.770;2023-03-01T07:35:10;15.13;;;6.72;;
45039;SDS011;30778;53.574;7.770;2023-03-01T07:37:35;17.55;;;6.57;;
45039;SDS011;30778;53.574;7.770;2023-03-01T07:40:01;16.70;;;5.85;;
45039;SDS011;30778;53.574;7.770;2023-03-01T07:42:27;13.85;;;6.15;;
45039;SDS011;30778;53.574;7.770;2023-03-01T07:44:53;11.98;;;6.22;;
45039;SDS011;30778;53.574;7.770;2023-03-01T07:47:18;16.10;;;6.10;;
45039;SDS011;30778;53.574;7.770;2023-03-01T07:49:44;17.67;;;6.18;;
45039;SDS011;30778;53.574;7.770;2023-03-01T07:52:10;29.00;;;9.70;;
45039;SDS011;30778;53.574;7.770;2023-03-01T07:54:37;23.60;;;10.02;;
45039;SDS011;30778;53.574;7.770;2023-03-01T07:57:03;24.13;;;10.45;;
45039;SDS011;30778;53.574;7.770;2023-03-01T07:59:29;24.02;;;10.80;;
45039;SDS011;30778;53.574;7.770;2023-03-01T08:01:55;19.00;;;10.00;;
45039;SDS011;30778;53.574;7.770;2023-03-01T08:04:22;21.77;;;10.48;;
45039;SDS011;30778;53.574;7.770;2023-03-01T08:06:50;27.83;;;10.70;;
45039;SDS011;30778;53.574;7.770;2023-03-01T08:09:16;22.55;;;9.45;;
45039;SDS011;30778;53.574;7.770;2023-03-01T08:11:42;24.17;;;10.35;;
45039;SDS011;30778;53.574;7.770;2023-03-01T08:14:08;21.30;;;9.50;;
45039;SDS011;30778;53.574;7.770;2023-03-01T08:16:33;21.88;;;8.32;;
45039;SDS011;30778;53.574;7.770;2023-03-01T08:19:18;18.73;;;8.52;;
45039;SDS011;30778;53.574;7.770;2023-03-01T08:21:44;18.75;;;8.20;;
45039;SDS011;30778;53.574;7.770;2023-03-01T08:24:09;15.57;;;7.57;;
45039;SDS011;30778;53.574;7.770;2023-03-01T08:26:35;15.40;;;6.68;;
45039;SDS011;30778;53.574;7.770;2023-03-01T08:29:02;18.67;;;7.57;;
45039;SDS011;30778;53.574;7.770;2023-03-01T08:31:31;9.88;;;4.90;;
45039;SDS011;30778;53.574;7.770;2023-03-01T08:34:01;13.68;;;3.88;;
45039;SDS011;30778;53.574;7.770;2023-03-01T08:36:32;13.88;;;4.03;;
45039;SDS011;30778;53.574;7.770;2023-03-01T08:39:00;19.80;;;4.85;;
45039;SDS011;30778;53.574;7.770;2023-03-01T08:41:27;7.88;;;3.50;;
45039;SDS011;30778;53.574;7.770;2023-03-01T08:43:54;9.07;;;4.82;;
45039;SDS011;30778;53.574;7.770;2023-03-01T08:46:27;7.28;;;3.10;;
45039;SDS011;30778;53.574;7.770;2023-03-01T08:48:57;9.13;;;4.22;;
45039;SDS011;30778;53.574;7.770;2023-03-01T08:51:23;9.40;;;4.78;;
45039;SDS011;30778;53.574;7.770;2023-03-01T08:53:50;11.05;;;5.25;;
45039;SDS011;30778;53.574;7.770;2023-03-01T08:56:16;9.27;;;5.22;;
45039;SDS011;30778;53.574;7.770;2023-03-01T08:58:47;9.65;;;5.75;;
45039;SDS011;30778;53.574;7.770;2023-03-01T09:01:17;9.40;;;5.15;;
45039;SDS011;30778;53.574;7.770;2023-03-01T09:06:11;10.85;;;3.60;;
45039;SDS011;30778;53.574;7.770;2023-03-01T09:08:37;7.43;;;2.97;;
45039;SDS011;30778;53.574;7.770;2023-03-01T09:11:06;11.75;;;4.72;;
45039;SDS011;30778;53.574;7.770;2023-03-01T09:13:33;8.32;;;4.40;;
45039;SDS011;30778;53.574;7.770;2023-03-01T09:16:00;9.20;;;3.83;;
45039;SDS011;30778;53.574;7.770;2023-03-01T09:18:26;12.85;;;5.50;;
45039;SDS011;30778;53.574;7.770;2023-03-01T09:20:52;19.20;;;8.73;;
45039;SDS011;30778;53.574;7.770;2023-03-01T09:23:20;15.20;;;6.70;;
45039;SDS011;30778;53.574;7.770;2023-03-01T09:25:46;13.27;;;6.85;;
45039;SDS011;30778;53.574;7.770;2023-03-01T09:28:11;18.55;;;7.53;;
45039;SDS011;30778;53.574;7.770;2023-03-01T09:30:37;19.15;;;7.93;;
45039;SDS011;30778;53.574;7.770;2023-03-01T09:33:02;13.13;;;6.70;;
45039;SDS011;30778;53.574;7.770;2023-03-01T09:35:28;18.92;;;8.77;;
45039;SDS011;30778;53.574;7.770;2023-03-01T09:37:53;16.25;;;7.38;;
45039;SDS011;30778;53.574;7.770;2023-03-01T09:40:20;14.77;;;7.25;;
45039;SDS011;30778;53.574;7.770;2023-03-01T09:42:52;13.82;;;6.78;;
45039;SDS011;30778;53.574;7.770;2023-03-01T09:45:34;14.68;;;7.60;;
45039;SDS011;30778;53.574;7.770;2023-03-01T09:48:05;16.88;;;7.53;;
45039;SDS011;30778;53.574;7.770;2023-03-01T09:50:35;11.18;;;7.15;;
45039;SDS011;30778;53.574;7.770;2023-03-01T09:53:06;13.45;;;6.97;;
45039;SDS011;30778;53.574;7.770;2023-03-01T09:55:40;12.82;;;6.55;;
45039;SDS011;30778;53.574;7.770;2023-03-01T10:03:44;11.77;;;5.70;;
45039;SDS011;30778;53.574;7.770;2023-03-01T10:06:25;11.80;;;6.13;;
45039;SDS011;30778;53.574;7.770;2023-03-01T10:11:26;10.20;;;6.32;;
45039;SDS011;30778;53.574;7.770;2023-03-01T10:14:01;10.32;;;5.78;;
45039;SDS011;30778;53.574;7.770;2023-03-01T10:19:15;7.25;;;4.78;;
45039;SDS011;30778;53.574;7.770;2023-03-01T10:21:55;8.68;;;6.25;;
45039;SDS011;30778;53.574;7.770;2023-03-01T10:24:27;9.15;;;6.10;;
45039;SDS011;30778;53.574;7.770;2023-03-01T10:32:38;7.50;;;4.40;;
45039;SDS011;30778;53.574;7.770;2023-03-01T10:35:21;8.50;;;4.50;;
45039;SDS011;30778;53.574;7.770;2023-03-01T10:38:12;7.88;;;4.72;;
45039;SDS011;30778;53.574;7.770;2023-03-01T10:43:50;8.90;;;4.78;;
45039;SDS011;30778;53.574;7.770;2023-03-01T10:46:29;12.90;;;5.57;;
45039;SDS011;30778;53.574;7.770;2023-03-01T10:49:05;7.93;;;5.50;;
45039;SDS011;30778;53.574;7.770;2023-03-01T10:51:32;6.10;;;4.75;;
45039;SDS011;30778;53.574;7.770;2023-03-01T10:53:58;16.02;;;7.03;;
45039;SDS011;30778;53.574;7.770;2023-03-01T10:56:24;10.35;;;5.55;;
45039;SDS011;30778;53.574;7.770;2023-03-01T11:01:49;12.30;;;6.00;;
45039;SDS011;30778;53.574;7.770;2023-03-01T11:04:59;8.02;;;4.82;;
45039;SDS011;30778;53.574;7.770;2023-03-01T11:07:53;9.07;;;5.50;;
45039;SDS011;30778;53.574;7.770;2023-03-01T11:10:28;10.68;;;5.72;;
45039;SDS011;30778;53.574;7.770;2023-03-01T11:13:06;7.35;;;4.78;;
45039;SDS011;30778;53.574;7.770;2023-03-01T11:15:39;9.65;;;5.53;;
45039;SDS011;30778;53.574;7.770;2023-03-01T11:18:05;11.50;;;6.22;;
45039;SDS011;30778;53.574;7.770;2023-03-01T11:20:45;7.80;;;6.18;;
45039;SDS011;30778;53.574;7.770;2023-03-01T11:23:14;7.32;;;5.32;;
45039;SDS011;30778;53.574;7.770;2023-03-01T11:26:02;9.50;;;5.53;;
45039;SDS011;30778;53.574;7.770;2023-03-01T11:28:32;11.20;;;5.43;;
45039;SDS011;30778;53.574;7.770;2023-03-01T11:31:03;11.52;;;6.85;;
45039;SDS011;30778;53.574;7.770;2023-03-01T11:39:12;12.00;;;6.55;;
45039;SDS011;30778;53.574;7.770;2023-03-01T11:41:48;10.57;;;7.13;;
45039;SDS011;30778;53.574;7.770;2023-03-01T11:44:19;11.85;;;6.88;;
45039;SDS011;30778;53.574;7.770;2023-03-01T11:55:54;11.48;;;7.72;;
45039;SDS011;30778;53.574;7.770;2023-03-01T12:01:26;11.85;;;7.90;;
45039;SDS011;30778;53.574;7.770;2023-03-01T12:09:35;13.20;;;6.93;;
45039;SDS011;30778;53.574;7.770;2023-03-01T12:20:54;14.20;;;8.00;;
45039;SDS011;30778;53.574;7.770;2023-03-01T12:23:55;9.35;;;7.32;;
45039;SDS011;30778;53.574;7.770;2023-03-01T12:27:06;11.95;;;8.45;;
45039;SDS011;30778;53.574;7.770;2023-03-01T12:32:25;13.70;;;8.65;;
45039;SDS011;30778;53.574;7.770;2023-03-01T12:44:01;10.80;;;6.90;;
45039;SDS011;30778;53.574;7.770;2023-03-01T12:49:25;15.32;;;7.72;;
45039;SDS011;30778;53.574;7.770;2023-03-01T12:51:56;13.75;;;8.63;;
45039;SDS011;30778;53.574;7.770;2023-03-01T12:54:31;12.93;;;7.57;;
45039;SDS011;30778;53.574;7.770;2023-03-01T13:07:58;12.43;;;7.75;;
45039;SDS011;30778;53.574;7.770;2023-03-01T13:11:00;12.98;;;8.70;;
45039;SDS011;30778;53.574;7.770;2023-03-01T13:13:28;17.23;;;9.98;;
45039;SDS011;30778;53.574;7.770;2023-03-01T13:15:55;10.95;;;8.52;;
45039;SDS011;30778;53.574;7.770;2023-03-01T13:20:51;15.48;;;9.43;;
45039;SDS011;30778;53.574;7.770;2023-03-01T13:26:06;13.90;;;9.55;;
45039;SDS011;30778;53.574;7.770;2023-03-01T13:33:46;10.82;;;8.52;;
45039;SDS011;30778;53.574;7.770;2023-03-01T13:36:37;13.85;;;9.57;;
45039;SDS011;30778;53.574;7.770;2023-03-01T13:38:59;12.38;;;8.88;;
45039;SDS011;30778;53.574;7.770;2023-03-01T13:44:13;14.77;;;8.95;;
45039;SDS011;30778;53.574;7.770;2023-03-01T13:47:36;15.45;;;9.73;;
45039;SDS011;30778;53.574;7.770;2023-03-01T13:54:57;11.75;;;8.38;;
45039;SDS011;30778;53.574;7.770;2023-03-01T13:57:28;15.80;;;9.77;;
45039;SDS011;30778;53.574;7.770;2023-03-01T13:59:58;12.07;;;8.20;;
45039;SDS011;30778;53.574;7.770;2023-03-01T14:02:23;13.05;;;9.13;;
45039;SDS011;30778;53.574;7.770;2023-03-01T14:04:58;10.00;;;8.30;;
45039;SDS011;30778;53.574;7.770;2023-03-01T14:07:26;8.48;;;7.60;;
45039;SDS011;30778;53.574;7.770;2023-03-01T14:10:02;13.25;;;8.20;;
45039;SDS011;30778;53.574;7.770;2023-03-01T14:15:14;10.48;;;6.72;;
45039;SDS011;30778;53.574;7.770;2023-03-01T14:18:08;10.43;;;7.20;;
45039;SDS011;30778;53.574;7.770;2023-03-01T14:20:41;7.50;;;5.55;;
45039;SDS011;30778;53.574;7.770;2023-03-01T14:23:14;6.88;;;5.60;;
45039;SDS011;30778;53.574;7.770;2023-03-01T14:25:49;8.20;;;5.88;;
45039;SDS011;30778;53.574;7.770;2023-03-01T14:28:18;8.82;;;6.32;;
45039;SDS011;30778;53.574;7.770;2023-03-01T14:30:51;9.00;;;5.68;;
45039;SDS011;30778;53.574;7.770;2023-03-01T14:35:56;8.02;;;6.38;;
45039;SDS011;30778;53.574;7.770;2023-03-01T14:40:56;7.53;;;5.15;;
45039;SDS011;30778;53.574;7.770;2023-03-01T14:43:24;8.40;;;7.07;;
45039;SDS011;30778;53.574;7.770;2023-03-01T14:45:53;13.38;;;6.60;;
45039;SDS011;30778;53.574;7.770;2023-03-01T14:48:18;9.13;;;6.72;;
45039;SDS011;30778;53.574;7.770;2023-03-01T14:50:45;7.03;;;5.45;;
45039;SDS011;30778;53.574;7.770;2023-03-01T14:53:21;9.38;;;7.20;;
45039;SDS011;30778;53.574;7.770;2023-03-01T14:55:53;8.70;;;7.40;;
45039;SDS011;30778;53.574;7.770;2023-03-01T14:58:24;7.85;;;6.85;;
45039;SDS011;30778;53.574;7.770;2023-03-01T15:06:02;8.57;;;6.20;;
45039;SDS011;30778;53.574;7.770;2023-03-01T15:08:29;11.95;;;7.40;;
45039;SDS011;30778;53.574;7.770;2023-03-01T15:13:50;11.63;;;7.38;;
45039;SDS011;30778;53.574;7.770;2023-03-01T15:16:22;12.65;;;7.45;;
45039;SDS011;30778;53.574;7.770;2023-03-01T15:18:51;11.18;;;7.68;;
45039;SDS011;30778;53.574;7.770;2023-03-01T15:21:39;10.98;;;7.95;;
45039;SDS011;30778;53.574;7.770;2023-03-01T15:26:56;11.45;;;8.20;;
45039;SDS011;30778;53.574;7.770;2023-03-01T15:29:30;12.48;;;8.60;;
45039;SDS011;30778;53.574;7.770;2023-03-01T15:34:29;14.43;;;8.63;;
45039;SDS011;30778;53.574;7.770;2023-03-01T15:36:57;12.80;;;8.10;;
45039;SDS011;30778;53.574;7.770;2023-03-01T15:42:03;12.50;;;7.82;;
45039;SDS011;30778;53.574;7.770;2023-03-01T15:44:37;11.52;;;7.72;;
45039;SDS011;30778;53.574;7.770;2023-03-01T15:49:52;12.48;;;7.03;;
45039;SDS011;30778;53.574;7.770;2023-03-01T15:52:53;10.60;;;7.72;;
45039;SDS011;30778;53.574;7.770;2023-03-01T15:55:44;11.55;;;7.60;;
45039;SDS011;30778;53.574;7.770;2023-03-01T15:58:04;10.65;;;6.82;;
45039;SDS011;30778;53.574;7.770;2023-03-01T16:00:35;10.20;;;7.07;;
45039;SDS011;30778;53.574;7.770;2023-03-01T16:03:00;14.43;;;8.02;;
45039;SDS011;30778;53.574;7.770;2023-03-01T16:05:33;12.20;;;7.80;;
45039;SDS011;30778;53.574;7.770;2023-03-01T16:08:01;9.98;;;6.45;;
45039;SDS011;30778;53.574;7.770;2023-03-01T16:10:27;9.50;;;5.68;;
45039;SDS011;30778;53.574;7.770;2023-03-01T16:12:53;10.80;;;6.05;;
45039;SDS011;30778;53.574;7.770;2023-03-01T16:15:21;8.88;;;4.97;;
45039;SDS011;30778;53.574;7.770;2023-03-01T16:17:57;6.65;;;3.92;;
45039;SDS011;30778;53.574;7.770;2023-03-01T16:20:26;6.82;;;4.25;;
45039;SDS011;30778;53.574;7.770;2023-03-01T16:22:53;6.75;;;3.58;;
45039;SDS011;30778;53.574;7.770;2023-03-01T16:25:19;5.90;;;4.07;;
45039;SDS011;30778;53.574;7.770;2023-03-01T16:27:49;5.57;;;3.15;;
45039;SDS011;30778;53.574;7.770;2023-03-01T16:30:16;5.78;;;3.35;;
45039;SDS011;30778;53.574;7.770;2023-03-01T16:32:44;7.65;;;3.97;;
45039;SDS011;30778;53.574;7.770;2023-03-01T16:35:11;8.43;;;3.65;;
45039;SDS011;30778;53.574;7.770;2023-03-01T16:37:39;6.22;;;3.72;;
45039;SDS011;30778;53.574;7.770;2023-03-01T16:40:05;5.72;;;3.33;;
45039;SDS011;30778;53.574;7.770;2023-03-01T16:42:41;5.20;;;3.00;;
45039;SDS011;30778;53.574;7.770;2023-03-01T16:45:07;3.85;;;3.13;;
45039;SDS011;30778;53.574;7.770;2023-03-01T16:47:34;5.03;;;3.78;;
45039;SDS011;30778;53.574;7.770;2023-03-01T16:49:59;9.57;;;5.03;;
45039;SDS011;30778;53.574;7.770;2023-03-01T16:52:25;5.22;;;4.18;;
45039;SDS011;30778;53.574;7.770;2023-03-01T16:54:51;3.97;;;3.15;;
45039;SDS011;30778;53.574;7.770;2023-03-01T16:57:16;5.80;;;3.78;;
45039;SDS011;30778;53.574;7.770;2023-03-01T16:59:42;6.45;;;4.05;;
45039;SDS011;30778;53.574;7.770;2023-03-01T17:02:10;6.68;;;4.45;;